Time;durP1;ratioP1;P1;durP2;ratioP2;P2;SDS_P1;SDS_P2;PMS_P1;PMS_P2;Temp;Humidity;BMP_temperature;BMP_pressure;BME280_temperature;BME280_humidity;BME280_pressure;Samples;Min_cycle;Max_cycle;Signal;HPM_P1;HPM_P2
2021/12/20 00:02:00;;;;;;;10.57;2.30;;;;;;;4.57;100.00;103049.06;5053316;28;20032;-78
2021/12/20 00:04:25;;;;;;;15.88;2.78;;;;;;;4.57;100.00;103037.66;5054164;28;20443;-78
2021/12/20 00:06:51;;;;;;;13.48;2.97;;;;;;;4.55;100.00;103053.50;5053997;28;20039;-78
2021/12/20 00:09:16;;;;;;;10.02;2.80;;;;;;;4.54;100.00;103035.97;5052169;28;20103;-78
2021/12/20 00:11:42;;;;;;;24.15;3.13;;;;;;;4.53;100.00;103028.09;5036552;28;20037;-78
2021/12/20 00:14:07;;;;;;;23.17;2.78;;;;;;;4.53;100.00;103025.47;5052093;28;20033;-77
2021/12/20 00:16:33;;;;;;;14.63;2.60;;;;;;;4.52;100.00;103035.16;5053592;28;20060;-78
2021/12/20 00:18:58;;;;;;;19.23;2.70;;;;;;;4.51;100.00;103041.31;5052813;28;20032;-81
2021/12/20 00:21:24;;;;;;;19.88;2.70;;;;;;;4.50;100.00;103039.59;5052125;28;20041;-77
2021/12/20 00:23:49;;;;;;;14.45;3.25;;;;;;;4.50;100.00;103036.09;5053610;28;20068;-78
2021/12/20 00:26:14;;;;;;;25.60;3.30;;;;;;;4.48;100.00;103030.88;5052802;28;20447;-78
2021/12/20 00:28:40;;;;;;;22.05;4.50;;;;;;;4.47;100.00;103029.13;5053533;28;20103;-78
2021/12/20 00:31:05;;;;;;;19.85;3.40;;;;;;;4.47;100.00;103038.84;5052830;28;20029;-79
2021/12/20 00:33:33;;;;;;;20.20;2.78;;;;;;;4.45;100.00;103027.44;5053400;28;20033;-78
2021/12/20 00:36:07;;;;;;;27.50;3.00;;;;;;;4.43;100.00;103032.75;5052759;28;20049;-82
2021/12/20 00:41:17;;;;;;;15.90;2.90;;;;;;;4.39;100.00;103029.38;5053059;28;20091;-77
2021/12/20 00:43:43;;;;;;;21.55;3.53;;;;;;;4.38;100.00;103021.50;5052014;28;20032;-78
2021/12/20 00:46:08;;;;;;;25.08;3.15;;;;;;;4.37;100.00;103018.03;5052674;28;20119;-78
2021/12/20 00:48:34;;;;;;;20.58;3.47;;;;;;;4.36;100.00;103025.94;5051993;28;20028;-78
2021/12/20 00:50:59;;;;;;;20.35;2.95;;;;;;;4.35;100.00;103024.25;5052098;28;20037;-78
2021/12/20 00:53:25;;;;;;;22.35;3.05;;;;;;;4.33;100.00;103021.66;5051582;28;20051;-79
2021/12/20 00:55:50;;;;;;;17.90;2.97;;;;;;;4.31;100.00;103025.22;5051896;28;20033;-78
2021/12/20 00:58:15;;;;;;;26.95;3.60;;;;;;;4.30;100.00;103023.50;5052274;28;20036;-79
2021/12/20 01:00:46;;;;;;;18.98;2.65;;;;;;;4.29;100.00;103021.78;5052827;28;20485;-78
2021/12/20 01:03:13;;;;;;;15.80;2.80;;;;;;;4.28;100.00;103009.50;5052731;28;20051;-78
2021/12/20 01:05:39;;;;;;;27.23;3.28;;;;;;;4.26;100.00;103013.97;5052885;28;20033;-77
2021/12/20 01:08:07;;;;;;;20.92;2.53;;;;;;;4.24;100.00;103017.50;5052762;28;20037;-83
2021/12/20 01:10:33;;;;;;;29.80;3.30;;;;;;;4.22;100.00;103011.44;5052825;28;20037;-77
2021/12/20 01:13:01;;;;;;;23.80;3.70;;;;;;;4.21;100.00;103009.69;5052712;28;20028;-77
2021/12/20 01:15:32;;;;;;;21.80;2.95;;;;;;;4.21;100.00;103020.22;5052811;28;20033;-77
2021/12/20 01:17:58;;;;;;;17.17;2.97;;;;;;;4.20;100.00;103018.50;5053084;28;20029;-78
2021/12/20 01:20:23;;;;;;;25.17;3.08;;;;;;;4.20;100.00;103010.59;5052432;28;20115;-78
2021/12/20 01:22:50;;;;;;;16.00;2.30;;;;;;;4.18;100.00;103014.16;5052790;28;20171;-77
2021/12/20 01:25:17;;;;;;;28.92;2.88;;;;;;;4.18;100.00;103008.91;5050502;28;20041;-78
2021/12/20 01:27:43;;;;;;;23.98;4.40;;;;;;;4.16;100.00;103010.72;5051604;28;20116;-78
2021/12/20 01:30:11;;;;;;;17.30;4.15;;;;;;;4.14;100.00;103009.91;5051520;28;20040;-82
2021/12/20 01:32:36;;;;;;;21.60;2.88;;;;;;;4.14;100.00;103008.13;5052284;28;20443;-77
2021/12/20 01:35:03;;;;;;;22.38;3.85;;;;;;;4.11;100.00;103004.75;5052405;28;20084;-78
2021/12/20 01:37:28;;;;;;;29.13;4.15;;;;;;;4.09;100.00;103001.25;5049978;28;20049;-78
2021/12/20 01:39:58;;;;;;;19.08;3.17;;;;;;;4.08;100.00;103004.81;5052353;28;20095;-77
2021/12/20 01:42:23;;;;;;;26.83;3.42;;;;;;;4.05;100.00;103006.63;5051496;28;20090;-77
2021/12/20 01:44:55;;;;;;;32.08;4.10;;;;;;;4.04;100.00;103004.03;5051198;28;20041;-77
2021/12/20 01:47:31;;;;;;;18.25;2.78;;;;;;;4.03;100.00;103000.53;5051969;28;20068;-78
2021/12/20 01:50:05;;;;;;;22.20;3.85;;;;;;;4.02;100.00;103004.06;5052467;28;20036;-78
2021/12/20 01:52:40;;;;;;;20.58;2.95;;;;;;;4.02;100.00;103008.50;5050491;28;20066;-78
2021/12/20 01:55:14;;;;;;;19.60;2.75;;;;;;;4.02;100.00;103004.06;5051204;28;20083;-78
2021/12/20 01:57:40;;;;;;;16.98;2.63;;;;;;;4.02;100.00;103008.50;5052213;28;20029;-78
2021/12/20 02:00:12;;;;;;;20.35;3.00;;;;;;;4.00;100.00;103005.03;5052026;28;20029;-77
2021/12/20 02:02:38;;;;;;;27.75;4.05;;;;;;;3.99;100.00;103006.81;5051939;28;20068;-78
2021/12/20 02:05:16;;;;;;;23.23;3.10;;;;;;;3.98;100.00;103012.97;5051958;28;20390;-78
2021/12/20 02:08:02;;;;;;;19.83;2.90;;;;;;;3.97;100.00;103008.63;5052374;28;20037;-78
2021/12/20 02:10:28;;;;;;;23.77;3.25;;;;;;;3.96;100.00;103014.78;5051478;28;20523;-78
2021/12/20 02:12:53;;;;;;;25.23;2.92;;;;;;;3.96;100.00;103012.16;5052008;28;20033;-78
2021/12/20 02:15:19;;;;;;;27.38;3.47;;;;;;;3.96;100.00;103001.63;5051486;28;20060;-78
2021/12/20 02:17:44;;;;;;;25.85;2.90;;;;;;;3.95;100.00;102996.41;5051852;28;20032;-78
2021/12/20 02:20:23;;;;;;;32.33;3.40;;;;;;;3.95;100.00;102991.13;5052053;28;20026;-78
2021/12/20 02:22:49;;;;;;;25.90;3.30;;;;;;;3.94;100.00;102995.53;5051989;28;20037;-78
2021/12/20 02:25:14;;;;;;;29.00;3.65;;;;;;;3.95;100.00;102999.03;5051583;28;20039;-83
2021/12/20 02:27:39;;;;;;;21.80;3.10;;;;;;;3.95;100.00;102988.50;5051799;28;20108;-78
2021/12/20 02:30:13;;;;;;;21.33;3.28;;;;;;;3.96;100.00;102992.88;5051840;28;20342;-78
2021/12/20 02:36:58;;;;;;;22.17;3.00;;;;;;;3.95;100.00;102986.72;5051260;28;20401;-80
2021/12/20 02:38:41;;;;;;;27.20;3.20;;;;;;;3.93;100.00;102982.41;5051468;28;20478;-79
2021/12/20 02:41:13;;;;;;;24.55;3.00;;;;;;;3.91;100.00;102992.97;5052117;28;20133;-78
2021/12/20 02:43:43;;;;;;;25.85;3.38;;;;;;;3.89;100.00;102986.88;5055269;28;20028;-78
2021/12/20 02:49:01;;;;;;;28.58;3.42;;;;;;;3.88;100.00;102985.16;5055620;28;20032;-78
2021/12/20 02:51:27;;;;;;;33.50;3.63;;;;;;;3.86;100.00;102982.56;5055033;28;20428;-78
2021/12/20 02:53:58;;;;;;;25.77;3.20;;;;;;;3.87;100.00;102986.09;5055675;28;20033;-78
2021/12/20 02:56:24;;;;;;;35.95;3.13;;;;;;;3.86;100.00;102982.56;5054926;28;20036;-78
2021/12/20 02:58:50;;;;;;;26.92;3.95;;;;;;;3.86;100.00;102977.28;5055369;28;20033;-77
2021/12/20 03:01:16;;;;;;;28.17;3.65;;;;;;;3.85;100.00;102977.34;5055250;28;20033;-78
2021/12/20 03:03:42;;;;;;;23.17;3.33;;;;;;;3.85;100.00;102979.97;5054471;28;20025;-79
2021/12/20 03:06:18;;;;;;;17.73;2.58;;;;;;;3.86;100.00;102979.06;5055077;28;20075;-78
2021/12/20 03:08:47;;;;;;;28.13;3.67;;;;;;;3.84;100.00;102973.00;5053404;28;20516;-78
2021/12/20 03:11:12;;;;;;;21.88;2.97;;;;;;;3.84;100.00;102980.91;5053936;28;20036;-78
2021/12/20 03:13:38;;;;;;;25.00;3.35;;;;;;;3.82;100.00;102983.56;5054482;28;20440;-77
2021/12/20 03:16:04;;;;;;;38.65;4.38;;;;;;;3.81;100.00;102979.22;5053969;28;20488;-77
2021/12/20 03:18:29;;;;;;;23.98;5.03;;;;;;;3.79;100.00;102973.13;5054021;28;20545;-78
2021/12/20 03:20:55;;;;;;;32.47;4.40;;;;;;;3.78;100.00;102973.19;5054845;28;20036;-78
2021/12/20 03:23:21;;;;;;;27.48;3.20;;;;;;;3.79;100.00;102977.50;5053696;28;20520;-77
2021/12/20 03:25:46;;;;;;;23.50;2.65;;;;;;;3.77;100.00;102976.72;5053930;28;20037;-78
2021/12/20 03:28:12;;;;;;;38.20;5.25;;;;;;;3.77;100.00;102980.19;5054695;28;20044;-78
2021/12/20 03:30:38;;;;;;;17.90;3.15;;;;;;;3.76;100.00;102985.50;5053994;28;20488;-78
2021/12/20 03:33:03;;;;;;;30.95;3.40;;;;;;;3.75;100.00;102971.47;5054471;28;20032;-78
2021/12/20 03:35:28;;;;;;;39.83;3.58;;;;;;;3.74;100.00;102967.13;5053668;28;20033;-77
2021/12/20 03:37:54;;;;;;;22.25;3.42;;;;;;;3.73;100.00;102970.66;5054548;28;20033;-78
2021/12/20 03:40:19;;;;;;;21.98;3.17;;;;;;;3.72;100.00;102966.31;5054486;28;20469;-78
2021/12/20 03:42:46;;;;;;;23.92;3.00;;;;;;;3.72;100.00;102974.19;5054293;28;20040;-78
2021/12/20 03:45:13;;;;;;;24.23;4.32;;;;;;;3.70;100.00;102971.63;5054466;28;20434;-78
2021/12/20 03:47:40;;;;;;;22.65;2.95;;;;;;;3.69;100.00;102972.50;5053681;28;20056;-78
2021/12/20 03:50:06;;;;;;;20.17;3.00;;;;;;;3.68;100.00;102968.13;5054190;28;20536;-78
2021/12/20 03:52:31;;;;;;;30.80;3.13;;;;;;;3.67;100.00;102971.69;5053027;28;20039;-78
2021/12/20 03:54:59;;;;;;;27.65;2.80;;;;;;;3.68;100.00;102964.66;5053984;28;20120;-78
2021/12/20 03:57:24;;;;;;;31.48;3.92;;;;;;;3.69;100.00;102971.66;5054226;28;20120;-77
2021/12/20 03:59:51;;;;;;;25.70;3.13;;;;;;;3.67;100.00;102971.69;5053479;28;20041;-77
2021/12/20 04:02:19;;;;;;;25.38;2.95;;;;;;;3.68;100.00;102977.81;5052553;28;20400;-78
2021/12/20 04:04:44;;;;;;;26.30;3.72;;;;;;;3.67;100.00;102970.81;5053631;28;20087;-78
2021/12/20 04:07:10;;;;;;;30.48;3.25;;;;;;;3.66;100.00;102971.75;5054125;28;20029;-78
2021/12/20 04:09:36;;;;;;;23.70;3.33;;;;;;;3.65;100.00;102968.22;5053253;28;20048;-78
2021/12/20 04:12:01;;;;;;;24.40;3.40;;;;;;;3.65;100.00;102972.63;5053912;28;20029;-78
2021/12/20 04:14:27;;;;;;;21.13;3.35;;;;;;;3.64;100.00;102974.41;5053968;28;20111;-77
2021/12/20 04:16:52;;;;;;;21.60;2.88;;;;;;;3.66;100.00;102974.38;5053088;28;20033;-78
2021/12/20 04:19:17;;;;;;;28.23;3.45;;;;;;;3.65;100.00;102970.84;5052137;28;20560;-77
2021/12/20 04:21:43;;;;;;;27.00;3.00;;;;;;;3.64;100.00;102970.91;5053115;28;20032;-78
2021/12/20 04:24:08;;;;;;;22.50;3.15;;;;;;;3.63;100.00;102975.31;5053160;28;20083;-77
2021/12/20 04:26:34;;;;;;;17.63;2.58;;;;;;;3.60;100.00;102964.88;5052775;28;20037;-80
2021/12/20 04:28:59;;;;;;;28.20;3.92;;;;;;;3.56;100.00;102983.44;5053620;28;20029;-77
2021/12/20 04:31:24;;;;;;;29.08;3.15;;;;;;;3.51;100.00;102979.13;5053513;28;20552;-78
2021/12/20 04:33:50;;;;;;;35.05;4.50;;;;;;;3.49;100.00;102974.81;5052767;28;20043;-77
2021/12/20 04:36:16;;;;;;;32.38;3.63;;;;;;;3.47;100.00;102974.00;5052591;28;20048;-77
2021/12/20 04:38:43;;;;;;;29.35;3.70;;;;;;;3.47;100.00;102976.63;5052873;28;20079;-78
2021/12/20 04:41:09;;;;;;;28.08;4.00;;;;;;;3.47;100.00;102972.22;5053414;28;20041;-77
2021/12/20 04:43:34;;;;;;;20.45;2.90;;;;;;;3.48;100.00;102973.09;5053146;28;20029;-83
2021/12/20 04:46:00;;;;;;;27.75;3.00;;;;;;;3.50;100.00;102979.19;5053039;28;20040;-77
2021/12/20 04:48:25;;;;;;;27.38;3.88;;;;;;;3.49;100.00;102978.31;5053046;28;20024;-78
2021/12/20 04:50:51;;;;;;;32.42;3.53;;;;;;;3.50;100.00;102987.94;5052797;28;20473;-77
2021/12/20 04:53:16;;;;;;;26.50;3.75;;;;;;;3.51;100.00;102988.81;5053272;28;20143;-77
2021/12/20 04:55:42;;;;;;;20.13;3.17;;;;;;;3.51;100.00;102981.78;5052451;28;20044;-78
2021/12/20 04:58:07;;;;;;;20.88;3.58;;;;;;;3.51;100.00;102976.50;5052981;28;20036;-77
2021/12/20 05:00:35;;;;;;;23.23;3.83;;;;;;;3.51;100.00;102973.03;5052973;28;20438;-77
2021/12/20 05:03:01;;;;;;;24.95;4.00;;;;;;;3.51;100.00;102978.28;5051028;28;20075;-76
2021/12/20 05:05:28;;;;;;;25.42;3.13;;;;;;;3.51;100.00;102975.66;5051599;28;20036;-76
2021/12/20 05:07:54;;;;;;;29.42;3.28;;;;;;;3.50;100.00;102972.13;5052450;28;20067;-75
2021/12/20 05:10:31;;;;;;;21.70;3.13;;;;;;;3.50;100.00;102974.78;5052435;28;20474;-77
2021/12/20 05:13:03;;;;;;;18.90;2.92;;;;;;;3.50;100.00;102968.66;5051873;28;20033;-77
2021/12/20 05:15:29;;;;;;;19.88;2.95;;;;;;;3.49;100.00;102973.06;5052547;28;20021;-77
2021/12/20 05:17:56;;;;;;;19.00;3.25;;;;;;;3.49;100.00;102975.69;5052158;28;20399;-77
2021/12/20 05:20:21;;;;;;;16.67;3.25;;;;;;;3.49;100.00;102972.19;5052403;28;20037;-76
2021/12/20 05:22:47;;;;;;;19.35;3.50;;;;;;;3.49;100.00;102977.44;5051629;28;20036;-76
2021/12/20 05:25:12;;;;;;;23.77;4.03;;;;;;;3.51;100.00;102983.56;5052151;28;20029;-76
2021/12/20 05:27:38;;;;;;;26.52;3.30;;;;;;;3.51;100.00;102980.91;5052106;28;20041;-76
2021/12/20 05:30:09;;;;;;;29.90;3.40;;;;;;;3.50;100.00;102987.06;5051583;28;20063;-77
2021/12/20 05:32:34;;;;;;;19.38;4.05;;;;;;;3.51;100.00;102976.50;5050971;28;20064;-77
2021/12/20 05:35:00;;;;;;;30.20;3.58;;;;;;;3.52;100.00;102980.88;5051659;28;20194;-77
2021/12/20 05:37:26;;;;;;;24.48;3.58;;;;;;;3.52;98.86;102980.88;5052136;28;20053;-76
2021/12/20 05:39:51;;;;;;;26.38;2.85;;;;;;;3.53;98.01;102984.38;5050476;28;20044;-77
2021/12/20 05:42:16;;;;;;;24.00;5.00;;;;;;;3.55;97.52;102989.59;5052263;28;20021;-77
2021/12/20 05:44:42;;;;;;;25.85;3.03;;;;;;;3.56;97.41;102980.78;5051895;28;20113;-82
2021/12/20 05:47:07;;;;;;;18.73;3.10;;;;;;;3.55;97.28;102985.16;5051867;28;20388;-77
2021/12/20 05:49:33;;;;;;;14.05;2.55;;;;;;;3.56;97.08;102986.06;5052196;28;20044;-77
2021/12/20 05:52:00;;;;;;;20.60;2.78;;;;;;;3.57;97.20;102985.13;5050609;28;20029;-77
2021/12/20 05:54:25;;;;;;;18.77;2.63;;;;;;;3.55;96.59;102986.94;5052095;28;20082;-77
2021/12/20 05:56:50;;;;;;;20.65;3.13;;;;;;;3.56;96.33;102978.16;5051160;28;20033;-77
2021/12/20 05:59:16;;;;;;;23.90;3.13;;;;;;;3.53;96.60;102974.69;5052031;28;20400;-77
2021/12/20 06:01:41;;;;;;;21.80;3.25;;;;;;;3.55;96.66;102981.69;5051857;28;20082;-77
2021/12/20 06:04:07;;;;;;;18.90;3.10;;;;;;;3.52;96.80;102986.13;5051574;28;20048;-77
2021/12/20 06:06:32;;;;;;;22.38;2.88;;;;;;;3.52;96.67;102983.50;5052084;28;20496;-76
2021/12/20 06:08:58;;;;;;;20.40;3.10;;;;;;;3.51;96.65;102979.13;5051309;28;20033;-77
2021/12/20 06:11:24;;;;;;;19.27;2.85;;;;;;;3.50;96.33;102987.94;5051881;28;20039;-74
2021/12/20 06:13:51;;;;;;;16.73;2.67;;;;;;;3.50;96.11;102984.44;5051419;28;20500;-74
2021/12/20 06:16:16;;;;;;;16.67;2.83;;;;;;;3.50;95.77;102987.94;5050925;28;20035;-74
2021/12/20 06:18:41;;;;;;;22.35;3.65;;;;;;;3.51;95.66;102991.44;5056375;28;20033;-73
2021/12/20 06:21:07;;;;;;;21.20;2.80;;;;;;;3.50;95.73;102987.94;5055359;28;20089;-73
2021/12/20 06:23:33;;;;;;;17.05;2.70;;;;;;;3.50;97.06;102993.19;5055534;28;20427;-73
2021/12/20 06:25:58;;;;;;;26.85;4.35;;;;;;;3.50;97.57;103000.25;5055094;28;20083;-74
2021/12/20 06:28:24;;;;;;;17.77;2.80;;;;;;;3.47;97.97;102998.53;5055802;28;20392;-73
2021/12/20 06:30:49;;;;;;;21.70;3.50;;;;;;;3.47;97.85;102992.44;5055291;28;20025;-79
2021/12/20 06:33:14;;;;;;;17.50;2.40;;;;;;;3.46;97.30;102994.19;5054241;28;20111;-75
2021/12/20 06:35:40;;;;;;;17.45;2.95;;;;;;;3.47;97.59;102990.66;5055826;28;20438;-75
2021/12/20 06:38:07;;;;;;;13.10;2.70;;;;;;;3.46;98.11;102994.19;5054838;28;20156;-75
2021/12/20 06:40:34;;;;;;;16.58;2.83;;;;;;;3.45;98.22;102999.47;5055532;28;20099;-74
2021/12/20 06:43:01;;;;;;;21.30;3.47;;;;;;;3.45;98.46;102991.59;5053759;28;20049;-74
2021/12/20 06:45:30;;;;;;;22.42;3.28;;;;;;;3.44;98.31;102992.50;5055268;28;20029;-74
2021/12/20 06:47:56;;;;;;;18.35;3.35;;;;;;;3.45;97.79;102995.09;5055324;28;20082;-75
2021/12/20 06:50:21;;;;;;;20.08;2.60;;;;;;;3.45;97.51;103003.00;5056006;28;20029;-75
2021/12/20 06:52:47;;;;;;;18.77;2.90;;;;;;;3.45;97.58;103005.63;5055635;28;20090;-75
2021/12/20 06:55:12;;;;;;;15.85;2.60;;;;;;;3.45;97.78;102996.84;5054973;28;20577;-74
2021/12/20 06:57:39;;;;;;;14.45;2.72;;;;;;;3.44;98.04;102996.00;5054851;28;20037;-74
2021/12/20 07:00:05;;;;;;;29.98;8.98;;;;;;;3.44;98.33;102998.63;5056778;28;20037;-75
2021/12/20 07:02:31;;;;;;;12.25;2.40;;;;;;;3.45;98.31;102994.22;5056648;28;20037;-75
2021/12/20 07:04:56;;;;;;;11.75;2.88;;;;;;;3.46;97.22;102998.59;5055212;28;20044;-76
2021/12/20 07:07:22;;;;;;;20.60;2.90;;;;;;;3.48;96.74;103000.28;5055107;28;20036;-75
2021/12/20 07:09:47;;;;;;;13.93;3.08;;;;;;;3.49;97.37;103006.41;5055107;28;20029;-74
2021/12/20 07:12:12;;;;;;;19.42;3.35;;;;;;;3.49;98.15;103001.13;5054327;28;20192;-74
2021/12/20 07:14:39;;;;;;;17.65;3.20;;;;;;;3.47;98.50;103001.16;5054967;28;20059;-76
2021/12/20 07:17:04;;;;;;;20.10;2.58;;;;;;;3.47;98.73;103005.59;5054184;28;20396;-74
2021/12/20 07:19:30;;;;;;;27.83;3.20;;;;;;;3.47;98.44;103003.81;5054704;28;20096;-74
2021/12/20 07:21:55;;;;;;;18.60;2.67;;;;;;;3.47;97.73;102997.69;5053460;28;20041;-81
2021/12/20 07:24:20;;;;;;;16.75;2.83;;;;;;;3.47;98.03;102995.06;5053195;28;20040;-76
2021/12/20 07:26:46;;;;;;;17.83;2.92;;;;;;;3.46;98.51;103002.09;5054697;28;20440;-77
2021/12/20 07:29:11;;;;;;;19.25;2.97;;;;;;;3.45;98.77;103005.63;5053864;28;20043;-73
2021/12/20 07:31:37;;;;;;;21.30;2.80;;;;;;;3.45;98.88;102996.84;5054275;28;20825;-73
2021/12/20 07:34:02;;;;;;;21.65;4.18;;;;;;;3.44;99.33;102992.50;5053721;28;20033;-75
2021/12/20 07:36:28;;;;;;;18.02;4.13;;;;;;;3.44;99.44;102992.50;5052955;28;20595;-74
2021/12/20 07:38:53;;;;;;;17.77;3.92;;;;;;;3.43;99.25;103004.78;5054321;28;20420;-74
2021/12/20 07:41:20;;;;;;;19.95;3.85;;;;;;;3.43;99.34;102998.66;5053512;28;20170;-75
2021/12/20 07:43:48;;;;;;;16.10;2.90;;;;;;;3.40;99.28;102996.97;5052746;28;20063;-74
2021/12/20 07:46:14;;;;;;;17.42;3.10;;;;;;;3.39;98.83;103003.16;5053314;28;20037;-73
2021/12/20 07:48:39;;;;;;;19.23;2.65;;;;;;;3.38;98.89;103004.06;5054363;28;20040;-73
2021/12/20 07:51:05;;;;;;;13.00;2.30;;;;;;;3.37;98.63;103006.72;5053868;28;20337;-73
2021/12/20 07:53:31;;;;;;;20.23;4.95;;;;;;;3.37;98.85;103006.72;5036097;28;20036;-75
2021/12/20 07:55:56;;;;;;;23.50;6.65;;;;;;;3.38;98.63;103014.56;5053951;28;20086;-73
2021/12/20 07:58:22;;;;;;;22.92;5.93;;;;;;;3.39;98.38;103015.44;5052534;28;20028;-78
2021/12/20 08:00:47;;;;;;;11.88;3.08;;;;;;;3.38;97.98;103003.19;5030582;28;20389;-77
2021/12/20 08:03:13;;;;;;;13.68;2.95;;;;;;;3.39;97.26;103002.28;5029551;28;20048;-75
2021/12/20 08:05:38;;;;;;;8.73;1.80;;;;;;;3.41;96.95;103016.28;5031197;28;20166;-75
2021/12/20 08:08:05;;;;;;;16.52;2.50;;;;;;;3.42;97.23;103017.97;5030346;28;20440;-76
2021/12/20 08:10:34;;;;;;;19.60;3.13;;;;;;;3.42;96.96;103015.34;5030899;28;20029;-76
2021/12/20 08:13:00;;;;;;;10.35;1.90;;;;;;;3.43;96.75;103020.56;5030945;28;20033;-74
2021/12/20 08:15:26;;;;;;;13.50;2.47;;;;;;;3.45;96.60;103029.31;5028553;28;20359;-74
2021/12/20 08:17:53;;;;;;;17.13;3.08;;;;;;;3.47;95.94;103024.88;5030818;28;20037;-75
2021/12/20 08:20:18;;;;;;;16.67;2.38;;;;;;;3.50;94.53;103029.19;5030288;28;20032;-75
2021/12/20 08:22:45;;;;;;;6.15;1.50;;;;;;;3.52;94.59;103030.00;5030277;28;20030;-72
2021/12/20 08:25:11;;;;;;;13.05;2.55;;;;;;;3.57;94.83;103037.78;5030664;28;20140;-73
2021/12/20 08:27:37;;;;;;;14.02;2.40;;;;;;;3.58;94.38;103029.84;5030978;28;20087;-73
2021/12/20 08:30:04;;;;;;;11.23;1.85;;;;;;;3.60;94.39;103032.44;5030850;28;20041;-73
2021/12/20 08:32:29;;;;;;;10.75;1.98;;;;;;;3.63;94.99;103032.38;5012836;28;20405;-75
2021/12/20 08:34:57;;;;;;;12.10;2.15;;;;;;;3.64;94.37;103034.09;5030349;28;20029;-74
2021/12/20 08:37:23;;;;;;;11.63;1.85;;;;;;;3.66;93.99;103037.56;5029390;28;20064;-73
2021/12/20 08:39:48;;;;;;;12.43;2.13;;;;;;;3.68;94.08;103035.75;5030083;28;20041;-74
2021/12/20 08:42:14;;;;;;;13.85;2.13;;;;;;;3.69;93.53;103032.22;5029952;28;20116;-75
2021/12/20 08:44:39;;;;;;;11.50;2.40;;;;;;;3.75;92.32;103033.78;5030515;28;20044;-75
2021/12/20 08:47:05;;;;;;;16.65;2.30;;;;;;;3.80;93.02;103042.44;5030139;28;20033;-75
2021/12/20 08:49:31;;;;;;;11.43;1.95;;;;;;;3.82;92.38;103030.97;5029986;28;20064;-73
2021/12/20 08:51:57;;;;;;;14.75;3.10;;;;;;;3.85;92.65;103025.63;5030146;28;20131;-76
2021/12/20 08:54:24;;;;;;;14.18;3.38;;;;;;;3.89;92.72;103027.25;5030037;28;20033;-76
2021/12/20 08:56:51;;;;;;;18.05;3.28;;;;;;;3.92;93.55;103033.34;5030282;28;20044;-74
2021/12/20 08:59:17;;;;;;;15.32;2.20;;;;;;;3.93;93.41;103040.38;5029777;28;20042;-76
2021/12/20 09:01:42;;;;;;;12.70;2.10;;;;;;;3.97;93.38;103042.88;5030293;28;20043;-73
2021/12/20 09:04:10;;;;;;;9.90;2.30;;;;;;;4.00;93.51;103036.63;5030562;28;20492;-76
2021/12/20 09:06:40;;;;;;;9.52;1.90;;;;;;;4.05;93.78;103045.28;5041798;28;20037;-74
2021/12/20 09:09:13;;;;;;;15.02;2.70;;;;;;;4.10;93.27;103043.38;5049942;28;20037;-71
2021/12/20 09:11:39;;;;;;;12.07;1.95;;;;;;;4.16;93.23;103051.09;5056558;28;20025;-72
2021/12/20 09:14:05;;;;;;;16.40;2.35;;;;;;;4.22;92.92;103050.97;5052462;28;20397;-73
2021/12/20 09:16:30;;;;;;;17.30;3.03;;;;;;;4.31;93.22;103047.16;5051470;28;20028;-74
2021/12/20 09:18:56;;;;;;;12.60;2.25;;;;;;;4.41;93.06;103046.00;5052094;28;20033;-72
2021/12/20 09:21:22;;;;;;;19.92;3.42;;;;;;;4.50;92.70;103046.66;5051741;28;20388;-74
2021/12/20 09:23:47;;;;;;;18.52;2.55;;;;;;;4.59;92.98;103043.72;5052397;28;20513;-74
2021/12/20 09:26:13;;;;;;;16.20;3.20;;;;;;;4.63;93.03;103042.72;5025933;28;20485;-78
2021/12/20 09:28:38;;;;;;;18.90;3.20;;;;;;;4.66;92.45;103044.38;5051824;28;20558;-72
2021/12/20 09:31:05;;;;;;;14.70;2.75;;;;;;;4.68;91.84;103046.06;5051583;28;20017;-74
2021/12/20 09:33:31;;;;;;;14.05;2.45;;;;;;;4.69;92.17;103045.19;5051971;28;20461;-74
2021/12/20 09:35:57;;;;;;;19.48;2.80;;;;;;;4.70;92.12;103049.56;5051010;28;20095;-74
2021/12/20 09:38:23;;;;;;;13.38;2.40;;;;;;;4.70;91.95;103046.91;5051940;28;20488;-73
2021/12/20 09:41:15;;;;;;;12.77;2.88;;;;;;;4.73;92.16;103044.19;5052217;28;20041;-74
2021/12/20 09:43:58;;;;;;;14.43;2.58;;;;;;;4.78;91.69;103046.69;5051149;28;20044;-73
2021/12/20 09:46:27;;;;;;;19.83;2.50;;;;;;;4.83;92.18;103052.66;5051733;28;20495;-74
2021/12/20 09:48:53;;;;;;;15.80;2.50;;;;;;;4.88;90.93;103050.75;5052023;28;20495;-73
2021/12/20 09:51:19;;;;;;;14.88;3.47;;;;;;;4.93;90.17;103061.16;5050602;28;20087;-74
2021/12/20 09:53:45;;;;;;;15.70;4.18;;;;;;;4.97;90.78;103060.16;5051855;28;20049;-74
2021/12/20 09:56:11;;;;;;;12.73;2.80;;;;;;;5.00;90.52;103062.69;5052581;28;20041;-73
2021/12/20 09:58:39;;;;;;;17.42;2.50;;;;;;;5.04;90.22;103066.09;5050341;28;20067;-74
2021/12/20 10:01:07;;;;;;;12.85;2.28;;;;;;;5.07;90.44;103064.22;5050880;28;20162;-76
2021/12/20 10:03:34;;;;;;;15.27;2.55;;;;;;;5.12;90.77;103064.09;5031307;28;20033;-73
2021/12/20 10:06:00;;;;;;;14.32;2.70;;;;;;;5.17;91.17;103058.66;5032081;28;20156;-74
2021/12/20 10:08:32;;;;;;;17.63;2.90;;;;;;;5.21;90.79;103060.25;5031152;28;20639;-73
2021/12/20 10:11:01;;;;;;;14.25;2.63;;;;;;;5.20;89.41;103064.69;5032033;28;20029;-73
2021/12/20 10:13:35;;;;;;;17.15;4.78;;;;;;;5.21;89.42;103063.78;5031445;28;20033;-73
2021/12/20 10:16:04;;;;;;;18.85;3.03;;;;;;;5.23;89.16;103069.88;5031991;28;20033;-73
2021/12/20 10:18:35;;;;;;;19.75;2.85;;;;;;;5.26;89.34;103069.78;5031382;28;20060;-74
2021/12/20 10:21:02;;;;;;;12.37;2.27;;;;;;;5.28;87.91;103067.97;5031518;28;20488;-73
2021/12/20 10:23:30;;;;;;;16.85;2.97;;;;;;;5.37;88.78;103069.41;5031440;28;20275;-72
2021/12/20 10:26:12;;;;;;;14.38;2.50;;;;;;;5.41;88.46;103067.56;5030645;28;20021;-73
2021/12/20 10:28:39;;;;;;;14.55;2.85;;;;;;;5.47;87.83;103062.06;5031099;28;20473;-74
2021/12/20 10:31:11;;;;;;;11.85;2.25;;;;;;;5.54;87.62;103070.63;5031590;28;20029;-73
2021/12/20 10:33:37;;;;;;;13.82;2.40;;;;;;;5.62;87.50;103068.59;5030832;28;20125;-73
2021/12/20 10:36:06;;;;;;;9.65;1.95;;;;;;;5.70;87.44;103063.06;5031579;28;20034;-73
2021/12/20 10:38:43;;;;;;;7.70;2.13;;;;;;;5.79;86.50;103065.38;5031208;28;20033;-74
2021/12/20 10:41:20;;;;;;;11.55;2.33;;;;;;;5.81;84.11;103059.13;5030666;28;20382;-74
2021/12/20 10:43:52;;;;;;;10.60;2.00;;;;;;;5.87;84.78;103063.34;5031189;28;20041;-74
2021/12/20 10:46:34;;;;;;;8.98;1.80;;;;;;;5.95;85.12;103065.69;5031974;28;20132;-73
2021/12/20 10:49:11;;;;;;;10.90;2.10;;;;;;;6.02;84.02;103067.25;5031719;28;20029;-75
2021/12/20 10:51:39;;;;;;;10.27;2.22;;;;;;;6.04;82.81;103067.19;5031191;28;20092;-74
2021/12/20 10:54:13;;;;;;;15.23;2.22;;;;;;;6.05;82.24;103077.72;5032139;28;20037;-74
2021/12/20 10:56:54;;;;;;;6.22;1.65;;;;;;;6.01;81.00;103065.50;5030429;28;20381;-73
2021/12/20 10:59:26;;;;;;;12.77;1.90;;;;;;;5.96;81.79;103068.28;5032245;28;20492;-73
2021/12/20 11:04:21;;;;;;;8.25;1.50;;;;;;;5.98;81.06;103073.56;5035354;28;19931;-72
2021/12/20 11:09:28;;;;;;;11.00;1.27;;;;;;;5.97;80.75;103058.59;5035264;28;20029;-86
2021/12/20 11:11:57;;;;;;;10.23;2.05;;;;;;;5.97;80.34;103050.69;5035305;28;20037;-74
2021/12/20 11:14:27;;;;;;;13.85;2.15;;;;;;;5.95;80.28;103050.69;5035693;28;20048;-74
2021/12/20 11:16:55;;;;;;;11.07;1.90;;;;;;;5.95;81.73;103055.13;5035181;28;20127;-74
2021/12/20 11:19:33;;;;;;;10.18;1.92;;;;;;;5.95;81.91;103058.63;5035092;28;20033;-75
2021/12/20 11:22:18;;;;;;;7.18;1.70;;;;;;;5.96;81.40;103057.72;5035969;28;20037;-72
2021/12/20 11:24:52;;;;;;;9.18;1.55;;;;;;;5.96;81.05;103060.38;5035516;28;20033;-73
2021/12/20 11:27:32;;;;;;;11.80;1.95;;;;;;;5.95;80.70;103050.69;5036279;28;20041;-72
2021/12/20 11:29:59;;;;;;;11.63;1.85;;;;;;;5.98;81.24;103055.91;5035206;28;20048;-72
2021/12/20 11:32:26;;;;;;;13.48;2.08;;;;;;;5.99;80.35;103052.34;5034913;28;20037;-72
2021/12/20 11:34:52;;;;;;;8.82;2.03;;;;;;;6.02;80.31;103054.03;5034317;28;20045;-72
2021/12/20 11:37:20;;;;;;;9.90;1.70;;;;;;;6.04;80.34;103051.34;5035088;28;20049;-75